createdAt,value
2018-08-25T00:01:40.847Z,90.10
2018-08-25T00:06:45.751Z,89.90
2018-08-25T00:11:50.749Z,89.80
2018-08-25T00:16:55.611Z,88.60
2018-08-25T00:22:00.825Z,87.10
2018-08-25T00:27:05.768Z,86.70
2018-08-25T00:32:10.620Z,87.20
2018-08-25T00:37:15.603Z,87.80
2018-08-25T00:42:20.741Z,87.40
2018-08-25T00:47:25.749Z,87.70
2018-08-25T00:52:33.186Z,87.80
2018-08-25T00:57:38.644Z,88.70
2018-08-25T01:02:43.569Z,87.80
2018-08-25T01:07:48.619Z,88.60
2018-08-25T01:12:53.521Z,90.10
2018-08-25T01:17:58.415Z,90.20
2018-08-25T01:23:03.415Z,90.40
2018-08-25T01:28:08.370Z,91.10
2018-08-25T01:33:13.231Z,91.80
2018-08-25T01:38:18.192Z,91.70
2018-08-25T01:43:23.482Z,91.90
2018-08-25T01:48:28.414Z,91.80
2018-08-25T01:53:33.781Z,91.60
2018-08-25T01:58:38.853Z,91.80
2018-08-25T02:03:43.783Z,92.30
2018-08-25T02:08:48.961Z,92.50
2018-08-25T02:13:54.054Z,92.30
2018-08-25T02:18:59.130Z,92.00
2018-08-25T02:24:04.157Z,91.90
2018-08-25T02:29:09.140Z,92.10
2018-08-25T02:34:14.218Z,92.10
2018-08-25T02:39:19.158Z,92.10
2018-08-25T02:44:24.118Z,92.30
2018-08-25T02:49:29.153Z,93.30
2018-08-25T02:54:34.127Z,93.30
2018-08-25T02:59:39.053Z,93.80
2018-08-25T03:04:43.972Z,94.20
2018-08-25T03:09:48.953Z,94.10
2018-08-25T03:14:53.834Z,94.10
2018-08-25T03:19:58.715Z,93.90
2018-08-25T03:25:03.652Z,93.50
2018-08-25T03:30:08.541Z,93.10
2018-08-25T03:35:13.627Z,92.70
2018-08-25T03:40:18.662Z,92.70
2018-08-25T03:45:23.524Z,92.70
2018-08-25T03:50:28.594Z,93.00
2018-08-25T03:55:33.572Z,92.20
2018-08-25T04:00:38.438Z,92.40
2018-08-25T04:05:43.470Z,92.30
2018-08-25T04:10:49.102Z,92.10
2018-08-25T04:15:54.124Z,92.10
2018-08-25T04:20:59.245Z,92.00
2018-08-25T04:26:04.257Z,91.80
2018-08-25T04:31:09.070Z,91.60
2018-08-25T04:36:14.018Z,91.10
2018-08-25T04:41:19.039Z,91.30
2018-08-25T04:46:24.059Z,91.80
2018-08-25T04:51:29.300Z,91.90
2018-08-25T04:56:34.260Z,91.90
2018-08-25T05:01:39.202Z,91.70
2018-08-25T05:06:44.387Z,91.10
2018-08-25T05:11:49.345Z,91.30
2018-08-25T05:16:54.272Z,91.00
2018-08-25T05:21:59.217Z,90.50
2018-08-25T05:27:04.340Z,91.00
2018-08-25T05:32:09.200Z,90.90
2018-08-25T05:37:14.415Z,89.80
2018-08-25T05:42:20.233Z,91.60
2018-08-25T05:47:25.697Z,93.20
2018-08-25T05:52:31.360Z,93.40
2018-08-25T05:57:36.366Z,94.20
2018-08-25T06:02:41.384Z,93.80
2018-08-25T06:07:46.570Z,92.20
2018-08-25T06:12:51.632Z,91.50
2018-08-25T06:17:57.514Z,91.40
2018-08-25T06:23:02.686Z,90.70
2018-08-25T06:28:07.887Z,89.70
2018-08-25T06:33:12.851Z,87.40
2018-08-25T06:38:18.287Z,84.90
2018-08-25T06:43:23.248Z,83.20
2018-08-25T06:48:28.161Z,79.40
2018-08-25T06:53:33.141Z,78.40
2018-08-25T06:58:37.965Z,79.40
2018-08-25T07:03:42.932Z,77.40
2018-08-25T07:08:47.845Z,75.10
2018-08-25T07:13:55.341Z,76.10
2018-08-25T07:19:01.445Z,74.30
2018-08-25T07:24:06.301Z,72.40
2018-08-25T07:29:11.694Z,71.10
2018-08-25T07:34:16.565Z,70.40
2018-08-25T07:39:21.491Z,69.10
2018-08-25T07:44:26.451Z,68.20
2018-08-25T07:49:32.010Z,67.50
2018-08-25T07:54:37.038Z,66.60
2018-08-25T07:59:42.424Z,67.00
2018-08-25T08:04:47.409Z,67.30
2018-08-25T08:09:52.385Z,64.90
2018-08-25T08:14:57.574Z,68.30
2018-08-25T08:20:02.449Z,68.20
2018-08-25T08:25:07.461Z,66.10
2018-08-25T08:30:12.635Z,66.60
2018-08-25T08:35:17.523Z,63.90
2018-08-25T08:40:22.451Z,61.30
2018-08-25T08:45:27.535Z,61.20
2018-08-25T08:50:32.419Z,61.60
2018-08-25T08:55:37.308Z,64.50
2018-08-25T09:00:42.359Z,63.80
2018-08-25T09:05:47.248Z,60.70
2018-08-25T09:10:52.447Z,60.00
2018-08-25T09:15:57.457Z,60.00
2018-08-25T09:21:02.312Z,60.60
2018-08-25T09:26:07.260Z,62.20
2018-08-25T09:31:12.171Z,62.90
2018-08-25T09:36:18.094Z,62.10
2018-08-25T09:41:23.192Z,63.40
2018-08-25T09:46:28.042Z,61.40
2018-08-25T09:51:33.009Z,63.60
2018-08-25T09:56:37.944Z,61.60
2018-08-25T10:11:09.737Z,62.30
2018-08-25T10:16:14.888Z,59.80
2018-08-25T10:21:20.045Z,62.30
2018-08-25T10:26:25.119Z,63.60
2018-08-25T10:31:30.224Z,65.40
2018-08-25T10:36:35.129Z,62.90
2018-08-25T10:41:40.203Z,61.40
2018-08-25T10:46:45.052Z,63.50
2018-08-25T10:51:50.300Z,64.10
2018-08-25T10:56:55.167Z,63.70
2018-08-25T11:02:00.116Z,60.20
2018-08-25T11:07:05.065Z,61.80
2018-08-25T11:12:10.291Z,60.30
2018-08-25T11:17:15.354Z,58.60
2018-08-25T11:22:20.325Z,58.80
2018-08-25T11:27:25.287Z,60.60
2018-08-25T11:32:30.614Z,63.40
2018-08-25T11:37:37.742Z,66.10
2018-08-25T11:42:42.739Z,67.00
2018-08-25T11:47:49.895Z,65.80
2018-08-25T11:52:54.779Z,61.40
2018-08-25T11:58:00.665Z,62.80
2018-08-25T12:03:05.780Z,64.90
2018-08-25T12:08:10.702Z,65.50
2018-08-25T12:13:15.623Z,65.50
2018-08-25T12:18:20.614Z,61.90
2018-08-25T12:23:25.730Z,59.60
2018-08-25T12:28:30.990Z,60.70
2018-08-25T12:33:36.556Z,60.70
2018-08-25T12:38:41.526Z,59.00
2018-08-25T12:43:46.557Z,63.00
2018-08-25T12:48:51.542Z,60.70
2018-08-25T12:53:56.480Z,57.80
2018-08-25T12:59:01.397Z,57.70
2018-08-25T13:04:06.455Z,62.80
2018-08-25T13:09:12.595Z,64.00
2018-08-25T13:14:17.678Z,66.40
2018-08-25T13:19:22.597Z,64.40
2018-08-25T13:24:29.087Z,58.80
2018-08-25T13:29:35.354Z,55.70
2018-08-25T13:34:40.357Z,57.10
2018-08-25T13:39:45.959Z,56.70
2018-08-25T13:44:51.559Z,57.60
2018-08-25T13:49:56.636Z,56.80
2018-08-25T13:55:01.797Z,57.10
2018-08-25T14:00:08.012Z,54.50
2018-08-25T14:05:14.276Z,54.40
2018-08-25T14:10:19.446Z,55.80
2018-08-25T14:15:24.489Z,56.10
2018-08-25T14:20:30.376Z,56.60
2018-08-25T14:25:36.003Z,58.00
2018-08-25T14:30:41.144Z,61.70
2018-08-25T14:35:47.667Z,66.00
2018-08-25T14:40:53.374Z,66.40
2018-08-25T14:46:01.364Z,67.80
2018-08-25T14:51:07.304Z,68.00
2018-08-25T14:56:18.016Z,68.70
2018-08-25T15:01:24.261Z,69.60
2018-08-25T15:06:33.420Z,70.00
2018-08-25T15:11:38.861Z,69.40
2018-08-25T15:16:43.735Z,70.80
2018-08-25T15:21:50.318Z,72.20
2018-08-25T15:27:02.826Z,71.70
2018-08-25T15:32:08.109Z,71.40
2018-08-25T15:37:15.426Z,73.00
2018-08-25T16:16:50.443Z,74.10
2018-08-25T16:22:39.277Z,72.20
2018-08-25T16:27:44.595Z,72.60
2018-08-25T16:38:53.809Z,72.10
2018-08-25T16:44:02.093Z,69.20
2018-08-25T16:49:09.395Z,70.00
2018-08-25T16:54:28.678Z,70.90
2018-08-25T16:59:33.776Z,71.00
2018-08-25T17:05:16.007Z,70.10
2018-08-25T17:10:37.850Z,69.70
2018-08-25T17:15:47.449Z,69.80
2018-08-25T17:20:54.090Z,70.40
2018-08-25T17:26:07.180Z,69.60
2018-08-25T17:31:12.327Z,69.80
2018-08-25T17:36:17.505Z,70.30
2018-08-25T17:41:22.742Z,70.50
2018-08-25T17:46:27.708Z,70.90
2018-08-25T17:51:32.915Z,69.70
2018-08-25T17:56:39.033Z,69.20
2018-08-25T18:01:44.184Z,69.80
2018-08-25T18:06:49.418Z,70.10
2018-08-25T18:11:54.623Z,69.40
2018-08-25T18:16:59.899Z,69.00
2018-08-25T18:22:04.995Z,69.10
2018-08-25T18:27:10.080Z,68.60
2018-08-25T18:32:15.408Z,68.90
2018-08-25T18:37:20.691Z,69.70
2018-08-25T18:42:25.963Z,68.90
2018-08-25T18:47:31.726Z,68.90
2018-08-25T18:52:40.344Z,69.20
2018-08-25T18:57:50.917Z,69.00
2018-08-25T19:03:03.136Z,69.40
2018-08-25T19:08:20.754Z,70.20
2018-08-25T19:13:35.027Z,71.20
2018-08-25T19:18:45.675Z,70.50
2018-08-25T19:23:56.461Z,70.10
2018-08-25T19:29:07.310Z,71.00
2018-08-25T19:34:17.798Z,70.20
2018-08-25T19:39:29.293Z,70.10
2018-08-25T19:44:39.761Z,69.80
2018-08-25T19:49:50.278Z,69.60
2018-08-25T19:55:02.710Z,69.10
2018-08-25T20:00:13.236Z,68.30
2018-08-25T20:05:24.294Z,68.20
2018-08-25T20:10:34.879Z,67.50
2018-08-25T20:15:46.029Z,68.30
2018-08-25T20:20:56.652Z,67.70
2018-08-25T20:26:08.759Z,68.10
2018-08-25T20:31:22.771Z,68.20
2018-08-25T20:36:34.076Z,67.20
2018-08-25T20:41:45.162Z,66.00
2018-08-25T20:46:56.356Z,65.90
2018-08-25T20:52:07.535Z,65.60
2018-08-25T20:57:18.469Z,66.00
2018-08-25T21:02:33.021Z,65.60
2018-08-25T21:07:44.012Z,63.50
2018-08-25T21:12:56.947Z,63.10
2018-08-25T21:18:07.939Z,62.90
2018-08-25T21:23:19.285Z,62.10
2018-08-25T21:28:31.540Z,62.20
2018-08-25T21:33:42.759Z,61.90
2018-08-25T21:38:57.042Z,62.20
2018-08-25T21:44:07.915Z,62.30
2018-08-25T21:49:18.617Z,61.60
2018-08-25T21:54:29.568Z,61.20
2018-08-25T21:59:35.252Z,61.20
2018-08-25T22:04:40.187Z,61.00
2018-08-25T22:09:45.205Z,61.90
2018-08-25T22:14:50.366Z,62.00
2018-08-25T22:19:55.429Z,61.20
2018-08-25T22:25:00.270Z,62.10
2018-08-25T22:30:07.424Z,62.10
2018-08-25T22:35:13.086Z,61.90
2018-08-25T22:40:18.036Z,62.30
2018-08-25T22:45:25.384Z,60.90
2018-08-25T22:50:34.138Z,61.00
2018-08-25T22:55:57.954Z,61.60
2018-08-25T23:01:07.318Z,62.00
2018-08-25T23:06:16.076Z,62.40
2018-08-25T23:11:21.080Z,63.00
2018-08-25T23:16:26.076Z,63.90
2018-08-25T23:21:30.949Z,65.80
2018-08-25T23:26:36.150Z,65.90
2018-08-25T23:31:41.051Z,65.30
2018-08-25T23:36:45.893Z,65.90
2018-08-25T23:41:50.782Z,65.90
2018-08-25T23:46:55.732Z,65.80
2018-08-25T23:52:01.096Z,66.10
2018-08-25T23:57:06.242Z,66.10
